Time;durP1;ratioP1;P1;durP2;ratioP2;P2;SDS_P1;SDS_P2;PMS_P1;PMS_P2;Temp;Humidity;BMP_temperature;BMP_pressure;BME280_temperature;BME280_humidity;BME280_pressure;Samples;Min_cycle;Max_cycle;Signal;HPM_P1;HPM_P2
2023/12/25 00:03:02;;;;;;;4.45;1.23;;;;;;;;;;10438316;28;20086;-74
2023/12/25 00:08:06;;;;;;;3.42;1.20;;;;;;;;;;10440499;28;20415;-74
2023/12/25 00:13:09;;;;;;;3.58;1.13;;;;;;;;;;10440651;28;20061;-74
2023/12/25 00:18:14;;;;;;;3.35;1.20;;;;;;;;;;10440524;28;20052;-74
2023/12/25 00:23:17;;;;;;;2.80;1.30;;;;;;;;;;10440584;28;20094;-74
2023/12/25 00:28:21;;;;;;;2.50;1.20;;;;;;;;;;10439789;28;20160;-74
2023/12/25 00:33:25;;;;;;;5.00;1.30;;;;;;;;;;10417268;28;20144;-74
2023/12/25 00:38:29;;;;;;;2.17;1.10;;;;;;;;;;10437744;28;20045;-74
2023/12/25 00:43:32;;;;;;;2.30;1.00;;;;;;;;;;10434790;28;20699;-74
2023/12/25 00:48:37;;;;;;;2.88;0.88;;;;;;;;;;10410796;28;20049;-75
2023/12/25 00:53:40;;;;;;;3.40;0.93;;;;;;;;;;10437833;28;20060;-74
2023/12/25 00:58:44;;;;;;;3.03;1.17;;;;;;;;;;10439363;28;20492;-74
2023/12/25 01:03:48;;;;;;;1.50;0.90;;;;;;;;;;10439542;28;20730;-75
2023/12/25 01:08:51;;;;;;;2.13;1.30;;;;;;;;;;10412507;28;20136;-74
2023/12/25 01:13:55;;;;;;;2.03;0.90;;;;;;;;;;10424176;28;20048;-75
2023/12/25 01:18:59;;;;;;;2.20;0.98;;;;;;;;;;10424709;28;20132;-74
2023/12/25 01:24:03;;;;;;;3.35;1.10;;;;;;;;;;10435926;28;20059;-74
2023/12/25 01:29:06;;;;;;;4.22;0.80;;;;;;;;;;10436082;28;20526;-74
2023/12/25 01:34:11;;;;;;;4.25;1.17;;;;;;;;;;10447998;28;20509;-74
2023/12/25 01:39:14;;;;;;;2.10;0.90;;;;;;;;;;10426047;28;20564;-74
2023/12/25 01:44:18;;;;;;;1.60;0.70;;;;;;;;;;10426645;28;20518;-74
2023/12/25 01:49:24;;;;;;;2.30;1.00;;;;;;;;;;10445638;28;20140;-74
2023/12/25 01:54:28;;;;;;;2.63;1.03;;;;;;;;;;10450150;28;20041;-74
2023/12/25 01:59:31;;;;;;;2.85;1.10;;;;;;;;;;10421452;28;20515;-74
2023/12/25 02:04:36;;;;;;;2.13;0.80;;;;;;;;;;10421977;28;20033;-74
2023/12/25 02:09:39;;;;;;;1.65;0.80;;;;;;;;;;10417658;28;20055;-74
2023/12/25 02:14:43;;;;;;;2.47;0.80;;;;;;;;;;10445234;28;20037;-74
2023/12/25 02:19:49;;;;;;;2.33;0.80;;;;;;;;;;10439989;28;20128;-74
2023/12/25 02:25:00;;;;;;;1.42;0.50;;;;;;;;;;10437795;28;20048;-74
2023/12/25 02:30:05;;;;;;;1.45;0.50;;;;;;;;;;10430321;28;20132;-74
2023/12/25 02:35:09;;;;;;;1.13;0.60;;;;;;;;;;10442455;28;20041;-74
2023/12/25 02:40:13;;;;;;;1.35;0.50;;;;;;;;;;10444005;28;20701;-74
2023/12/25 02:45:18;;;;;;;1.60;0.52;;;;;;;;;;10445360;28;20033;-74
2023/12/25 02:50:21;;;;;;;1.27;0.47;;;;;;;;;;10425360;28;20053;-74
2023/12/25 02:55:25;;;;;;;0.45;0.45;;;;;;;;;;10443945;28;20053;-74
2023/12/25 03:00:31;;;;;;;0.77;0.50;;;;;;;;;;10425684;28;20037;-74
2023/12/25 03:05:35;;;;;;;2.90;0.50;;;;;;;;;;10444057;28;20037;-74
2023/12/25 03:10:39;;;;;;;0.80;0.40;;;;;;;;;;10415896;28;20120;-74
2023/12/25 03:15:44;;;;;;;1.95;0.60;;;;;;;;;;10444804;28;20033;-74
2023/12/25 03:20:47;;;;;;;0.93;0.52;;;;;;;;;;10442926;28;20045;-74
2023/12/25 03:25:51;;;;;;;1.08;0.32;;;;;;;;;;10416966;28;20059;-74
2023/12/25 03:30:55;;;;;;;0.73;0.55;;;;;;;;;;10412068;28;20036;-74
2023/12/25 03:35:58;;;;;;;1.23;0.52;;;;;;;;;;10441513;28;20035;-74
2023/12/25 03:41:02;;;;;;;0.77;0.43;;;;;;;;;;10441845;28;20037;-74
2023/12/25 03:46:07;;;;;;;1.15;0.50;;;;;;;;;;10443006;28;20494;-74
2023/12/25 03:51:11;;;;;;;1.97;0.50;;;;;;;;;;10440290;28;20041;-74
2023/12/25 03:56:16;;;;;;;1.45;0.40;;;;;;;;;;10421884;28;20133;-74
2023/12/25 04:01:22;;;;;;;1.02;0.45;;;;;;;;;;10438262;28;20171;-74
2023/12/25 04:06:25;;;;;;;0.93;0.40;;;;;;;;;;10440219;28;20167;-74
2023/12/25 04:11:29;;;;;;;0.85;0.40;;;;;;;;;;10441838;28;20049;-74
2023/12/25 04:16:33;;;;;;;0.80;0.40;;;;;;;;;;10440856;28;20029;-74
2023/12/25 04:21:36;;;;;;;2.67;0.45;;;;;;;;;;10415391;28;21749;-74
2023/12/25 04:26:40;;;;;;;0.63;0.50;;;;;;;;;;10416768;28;20069;-74
2023/12/25 04:31:44;;;;;;;1.05;0.50;;;;;;;;;;10439404;28;20041;-74
2023/12/25 04:36:50;;;;;;;0.88;0.38;;;;;;;;;;10411880;28;20063;-74
2023/12/25 04:41:53;;;;;;;1.20;0.50;;;;;;;;;;10431016;28;20068;-74
2023/12/25 04:46:58;;;;;;;0.40;0.40;;;;;;;;;;10439472;28;20045;-73
2023/12/25 04:52:02;;;;;;;2.15;0.90;;;;;;;;;;10416649;28;20048;-74
2023/12/25 04:57:05;;;;;;;0.50;0.30;;;;;;;;;;10429933;28;20052;-74
2023/12/25 05:02:10;;;;;;;2.78;0.50;;;;;;;;;;10419519;28;20041;-74
2023/12/25 05:07:13;;;;;;;0.93;0.50;;;;;;;;;;10419927;28;20494;-74
2023/12/25 05:12:17;;;;;;;0.50;0.35;;;;;;;;;;10440048;28;20045;-74
2023/12/25 05:17:23;;;;;;;0.38;0.32;;;;;;;;;;10421052;28;20100;-74
2023/12/25 05:22:26;;;;;;;1.20;0.52;;;;;;;;;;10420473;28;20045;-74
2023/12/25 05:27:30;;;;;;;0.65;0.50;;;;;;;;;;10439408;28;20063;-74
2023/12/25 05:32:35;;;;;;;3.40;0.40;;;;;;;;;;10441024;28;20552;-73
2023/12/25 05:37:39;;;;;;;0.53;0.20;;;;;;;;;;10441613;28;20039;-74
2023/12/25 05:42:42;;;;;;;2.08;0.40;;;;;;;;;;10440267;28;20321;-74
2023/12/25 05:47:47;;;;;;;0.30;0.30;;;;;;;;;;10439247;28;20481;-74
2023/12/25 05:52:50;;;;;;;0.68;0.40;;;;;;;;;;10438747;28;20080;-74
2023/12/25 05:57:53;;;;;;;2.63;0.40;;;;;;;;;;10438646;28;20037;-74
2023/12/25 06:02:58;;;;;;;0.65;0.30;;;;;;;;;;10448744;22;20048;-73
2023/12/25 06:08:01;;;;;;;0.50;0.35;;;;;;;;;;10430731;28;20049;-75
2023/12/25 06:13:04;;;;;;;0.50;0.35;;;;;;;;;;10432068;28;20045;-74
2023/12/25 06:18:09;;;;;;;0.52;0.30;;;;;;;;;;10435598;28;20049;-75
2023/12/25 06:23:12;;;;;;;0.15;0.13;;;;;;;;;;10438277;28;20049;-75
2023/12/25 06:28:15;;;;;;;0.20;0.20;;;;;;;;;;10439207;28;20041;-75
2023/12/25 06:33:20;;;;;;;0.40;0.30;;;;;;;;;;10431528;28;20051;-75
2023/12/25 06:38:23;;;;;;;0.60;0.30;;;;;;;;;;10437974;28;20239;-75
2023/12/25 06:43:26;;;;;;;0.32;0.20;;;;;;;;;;10441450;28;20051;-75
2023/12/25 06:48:31;;;;;;;0.43;0.20;;;;;;;;;;10443448;28;20052;-75
2023/12/25 06:53:34;;;;;;;0.22;0.20;;;;;;;;;;10431546;28;20037;-75
2023/12/25 06:58:38;;;;;;;0.20;0.20;;;;;;;;;;10441934;28;20065;-75
2023/12/25 07:03:43;;;;;;;0.63;0.20;;;;;;;;;;10440797;28;20486;-75
2023/12/25 07:08:46;;;;;;;0.35;0.20;;;;;;;;;;10439670;28;20048;-75
2023/12/25 07:13:50;;;;;;;0.20;0.20;;;;;;;;;;10438960;28;20114;-75
2023/12/25 07:18:55;;;;;;;0.35;0.20;;;;;;;;;;10440606;28;20512;-76
2023/12/25 07:23:58;;;;;;;0.10;0.10;;;;;;;;;;10442352;28;20055;-75
2023/12/25 07:29:02;;;;;;;0.20;0.20;;;;;;;;;;10435177;28;20127;-75
2023/12/25 07:34:07;;;;;;;0.20;0.10;;;;;;;;;;10445493;28;20091;-75
2023/12/25 07:39:10;;;;;;;0.50;0.38;;;;;;;;;;10426635;28;20045;-75
2023/12/25 07:44:13;;;;;;;0.20;0.20;;;;;;;;;;10426762;28;20640;-75
2023/12/25 07:49:18;;;;;;;0.65;0.20;;;;;;;;;;10417665;28;20041;-75
2023/12/25 07:54:21;;;;;;;0.20;0.20;;;;;;;;;;10425850;28;20069;-75
2023/12/25 07:59:25;;;;;;;0.10;0.10;;;;;;;;;;10417781;28;20053;-75
2023/12/25 08:04:30;;;;;;;0.13;0.13;;;;;;;;;;10429755;28;20036;-75
2023/12/25 08:09:33;;;;;;;0.20;0.20;;;;;;;;;;10430953;28;20041;-75
2023/12/25 08:14:36;;;;;;;0.40;0.13;;;;;;;;;;10425625;28;20127;-75
2023/12/25 08:19:41;;;;;;;0.20;0.20;;;;;;;;;;10430377;28;20041;-75
2023/12/25 08:24:44;;;;;;;0.38;0.30;;;;;;;;;;10431516;28;20955;-75
2023/12/25 08:29:47;;;;;;;0.20;0.20;;;;;;;;;;10437070;28;20045;-75
2023/12/25 08:34:52;;;;;;;0.10;0.10;;;;;;;;;;10434963;28;20045;-75
2023/12/25 08:39:55;;;;;;;0.20;0.15;;;;;;;;;;10432065;28;20436;-75
2023/12/25 08:44:59;;;;;;;0.17;0.17;;;;;;;;;;10427667;28;20041;-75
2023/12/25 08:50:03;;;;;;;0.20;0.20;;;;;;;;;;10429581;28;20064;-75
2023/12/25 08:55:07;;;;;;;1.38;0.20;;;;;;;;;;10431308;28;20133;-75
2023/12/25 09:00:11;;;;;;;0.30;0.30;;;;;;;;;;10437888;28;20048;-75
2023/12/25 09:05:16;;;;;;;0.10;0.10;;;;;;;;;;10433855;28;20045;-75
2023/12/25 09:10:19;;;;;;;0.60;0.17;;;;;;;;;;10424069;28;20132;-75
2023/12/25 09:15:22;;;;;;;0.63;0.25;;;;;;;;;;10436174;28;20099;-75
2023/12/25 09:20:27;;;;;;;0.10;0.10;;;;;;;;;;10427662;28;20494;-75
2023/12/25 09:25:30;;;;;;;0.47;0.20;;;;;;;;;;10434612;28;20053;-75
2023/12/25 09:30:34;;;;;;;0.10;0.10;;;;;;;;;;10426686;28;20045;-74
2023/12/25 09:35:38;;;;;;;0.10;0.10;;;;;;;;;;10429684;28;20123;-75
2023/12/25 09:40:42;;;;;;;0.20;0.20;;;;;;;;;;10433369;28;20048;-74
2023/12/25 09:45:46;;;;;;;0.20;0.20;;;;;;;;;;10434813;28;20397;-75
2023/12/25 09:50:50;;;;;;;0.22;0.22;;;;;;;;;;10432930;28;20047;-75
2023/12/25 09:55:55;;;;;;;0.10;0.10;;;;;;;;;;10425664;28;20127;-75
2023/12/25 10:00:58;;;;;;;0.20;0.20;;;;;;;;;;10435247;28;20047;-75
2023/12/25 10:06:03;;;;;;;0.85;0.70;;;;;;;;;;10440626;28;20052;-75
2023/12/25 10:11:12;;;;;;;0.10;0.10;;;;;;;;;;10442610;28;20036;-75
2023/12/25 10:16:16;;;;;;;0.15;0.15;;;;;;;;;;10433151;28;20047;-75
2023/12/25 10:21:20;;;;;;;0.20;0.20;;;;;;;;;;10437002;28;20047;-75
2023/12/25 10:26:28;;;;;;;0.43;0.43;;;;;;;;;;10425524;28;20045;-75
2023/12/25 10:31:31;;;;;;;0.20;0.20;;;;;;;;;;10428108;28;20053;-75
2023/12/25 10:36:36;;;;;;;0.38;0.38;;;;;;;;;;10445231;28;20056;-75
2023/12/25 10:41:42;;;;;;;0.50;0.50;;;;;;;;;;10427151;28;20148;-75
2023/12/25 10:46:45;;;;;;;;;;;;;;;;;;10437547;28;20038;-75
2023/12/25 10:51:51;;;;;;;1.70;1.33;;;;;;;;;;10434818;28;19928;-75
2023/12/25 10:56:55;;;;;;;0.80;0.60;;;;;;;;;;10432853;28;20055;-75
2023/12/25 11:02:03;;;;;;;0.95;0.50;;;;;;;;;;10434152;28;20051;-75
2023/12/25 11:07:08;;;;;;;0.45;0.40;;;;;;;;;;10431888;28;20316;-75
2023/12/25 11:12:12;;;;;;;1.88;1.20;;;;;;;;;;10440382;28;20044;-75
2023/12/25 11:17:15;;;;;;;0.55;0.40;;;;;;;;;;10434901;28;20132;-75
2023/12/25 11:22:28;;;;;;;0.30;0.30;;;;;;;;;;10433145;28;20063;-75
2023/12/25 11:27:32;;;;;;;0.52;0.30;;;;;;;;;;10427140;28;20129;-75
2023/12/25 11:32:36;;;;;;;0.20;0.20;;;;;;;;;;10432559;28;20048;-75
2023/12/25 11:37:41;;;;;;;0.13;0.13;;;;;;;;;;10425635;28;20045;-75
2023/12/25 11:42:44;;;;;;;0.20;0.20;;;;;;;;;;10430166;28;20140;-75
2023/12/25 11:47:50;;;;;;;0.28;0.28;;;;;;;;;;10428748;28;20477;-74
2023/12/25 11:52:55;;;;;;;0.10;0.10;;;;;;;;;;10429983;28;20060;-75
2023/12/25 11:57:59;;;;;;;0.82;0.30;;;;;;;;;;10425213;28;20048;-75
2023/12/25 12:03:02;;;;;;;1.17;0.30;;;;;;;;;;10418143;22;20410;-73
2023/12/25 12:08:09;;;;;;;0.20;0.20;;;;;;;;;;10390174;28;20432;-73
2023/12/25 12:13:13;;;;;;;0.50;0.30;;;;;;;;;;10384834;28;20510;-73
2023/12/25 12:18:16;;;;;;;0.60;0.40;;;;;;;;;;10383789;28;20144;-73
2023/12/25 12:23:20;;;;;;;0.17;0.17;;;;;;;;;;10395035;28;20455;-73
2023/12/25 12:28:24;;;;;;;0.10;0.10;;;;;;;;;;10387459;28;20517;-73
2023/12/25 12:33:27;;;;;;;0.25;0.20;;;;;;;;;;10380976;28;20441;-73
2023/12/25 12:38:32;;;;;;;0.35;0.20;;;;;;;;;;10386096;28;20561;-73
2023/12/25 12:43:35;;;;;;;0.60;0.20;;;;;;;;;;10382824;28;20045;-73
2023/12/25 12:48:39;;;;;;;2.15;0.30;;;;;;;;;;10388773;28;20033;-73
2023/12/25 12:53:44;;;;;;;0.15;0.15;;;;;;;;;;10387267;28;21120;-73
2023/12/25 12:58:47;;;;;;;0.30;0.30;;;;;;;;;;10385916;28;20041;-73
2023/12/25 13:03:50;;;;;;;2.08;0.32;;;;;;;;;;10389858;28;20045;-73
2023/12/25 13:08:56;;;;;;;0.22;0.20;;;;;;;;;;10381088;28;20045;-73
2023/12/25 13:13:59;;;;;;;0.20;0.20;;;;;;;;;;10386377;28;20037;-74
2023/12/25 13:19:03;;;;;;;0.57;0.20;;;;;;;;;;10390395;28;20517;-74
2023/12/25 13:24:09;;;;;;;0.20;0.20;;;;;;;;;;10395482;28;20060;-73
2023/12/25 13:29:13;;;;;;;0.20;0.10;;;;;;;;;;10475241;23;20036;-73
2023/12/25 13:34:16;;;;;;;0.10;0.10;;;;;;;;;;10474943;28;20683;-74
2023/12/25 13:39:21;;;;;;;0.30;0.20;;;;;;;;;;10478179;28;20119;-73
2023/12/25 13:44:25;;;;;;;0.20;0.20;;;;;;;;;;10470984;28;20047;-73
2023/12/25 13:49:28;;;;;;;0.20;0.10;;;;;;;;;;10474033;28;20094;-73
2023/12/25 13:54:33;;;;;;;0.17;0.10;;;;;;;;;;10466363;28;20052;-74
2023/12/25 13:59:36;;;;;;;0.30;0.25;;;;;;;;;;10467896;28;20047;-74
2023/12/25 14:04:40;;;;;;;0.30;0.30;;;;;;;;;;10476064;28;20133;-73
2023/12/25 14:09:45;;;;;;;1.02;0.28;;;;;;;;;;10472712;28;20127;-73
2023/12/25 14:14:48;;;;;;;0.20;0.20;;;;;;;;;;10469037;28;20063;-74
2023/12/25 14:19:51;;;;;;;0.15;0.15;;;;;;;;;;10474802;28;20135;-73
2023/12/25 14:24:56;;;;;;;0.20;0.20;;;;;;;;;;10465943;28;20044;-73
2023/12/25 14:29:59;;;;;;;0.20;0.20;;;;;;;;;;10465983;28;20146;-73
2023/12/25 14:35:03;;;;;;;0.20;0.20;;;;;;;;;;10467350;28;20051;-73
2023/12/25 14:40:09;;;;;;;0.43;0.20;;;;;;;;;;10471469;28;20498;-74
2023/12/25 14:45:13;;;;;;;1.30;0.47;;;;;;;;;;10473066;28;20043;-73
2023/12/25 14:50:16;;;;;;;2.08;1.60;;;;;;;;;;10471338;28;20569;-73
2023/12/25 14:55:21;;;;;;;0.40;0.40;;;;;;;;;;10471872;28;20298;-73
2023/12/25 15:00:25;;;;;;;0.38;0.22;;;;;;;;;;10468539;28;20049;-74
2023/12/25 15:05:28;;;;;;;0.20;0.20;;;;;;;;;;10469763;28;20067;-73
2023/12/25 15:10:32;;;;;;;0.57;0.30;;;;;;;;;;10473516;28;20068;-74
2023/12/25 15:15:35;;;;;;;0.20;0.20;;;;;;;;;;10476822;28;20060;-75
2023/12/25 15:20:40;;;;;;;0.22;0.22;;;;;;;;;;10473095;28;20029;-73
2023/12/25 15:25:45;;;;;;;0.20;0.20;;;;;;;;;;10470551;28;20132;-73
2023/12/25 15:30:48;;;;;;;0.40;0.40;;;;;;;;;;10471181;28;20668;-74
2023/12/25 15:35:52;;;;;;;0.40;0.40;;;;;;;;;;10474565;28;20140;-73
2023/12/25 15:40:57;;;;;;;0.50;0.40;;;;;;;;;;10462609;28;20029;-73
2023/12/25 15:46:00;;;;;;;0.52;0.43;;;;;;;;;;10469587;28;20053;-73
2023/12/25 15:51:03;;;;;;;0.50;0.40;;;;;;;;;;10455292;28;20502;-73
2023/12/25 15:56:10;;;;;;;0.30;0.30;;;;;;;;;;10468133;28;20064;-74
2023/12/25 16:01:13;;;;;;;0.70;0.50;;;;;;;;;;10472810;28;20040;-73
2023/12/25 16:06:16;;;;;;;0.40;0.30;;;;;;;;;;10466635;28;20072;-74
2023/12/25 16:11:21;;;;;;;0.30;0.28;;;;;;;;;;10467693;28;20036;-73
2023/12/25 16:16:24;;;;;;;0.80;0.20;;;;;;;;;;10460333;28;20047;-73
2023/12/25 16:21:28;;;;;;;0.30;0.30;;;;;;;;;;10469005;28;20037;-74
2023/12/25 16:26:33;;;;;;;0.30;0.30;;;;;;;;;;10463478;28;20529;-73
2023/12/25 16:31:36;;;;;;;0.25;0.25;;;;;;;;;;10459490;28;20458;-73
2023/12/25 16:36:39;;;;;;;0.20;0.20;;;;;;;;;;10454886;28;20052;-74
2023/12/25 16:41:43;;;;;;;0.20;0.20;;;;;;;;;;10454256;28;20035;-73
2023/12/25 16:46:47;;;;;;;1.10;0.20;;;;;;;;;;10470182;28;20044;-73
2023/12/25 16:51:50;;;;;;;0.40;0.30;;;;;;;;;;10462477;28;20076;-73
2023/12/25 16:56:54;;;;;;;0.22;0.22;;;;;;;;;;10465091;28;20131;-73
2023/12/25 17:01:58;;;;;;;0.40;0.32;;;;;;;;;;10467987;28;20055;-73
2023/12/25 17:07:01;;;;;;;0.70;0.40;;;;;;;;;;10460715;28;20097;-73
2023/12/25 17:12:07;;;;;;;0.20;0.20;;;;;;;;;;10467947;28;20037;-73
2023/12/25 17:17:12;;;;;;;0.60;0.30;;;;;;;;;;10467864;28;20068;-73
2023/12/25 17:22:15;;;;;;;0.10;0.10;;;;;;;;;;10466670;28;20045;-73
2023/12/25 17:27:21;;;;;;;0.20;0.20;;;;;;;;;;10464126;28;20063;-74
2023/12/25 17:32:24;;;;;;;0.10;0.10;;;;;;;;;;10462768;28;20421;-73
2023/12/25 17:37:29;;;;;;;0.20;0.20;;;;;;;;;;10453191;28;20044;-73
2023/12/25 17:42:33;;;;;;;0.17;0.17;;;;;;;;;;10465424;28;20450;-73
2023/12/25 17:47:37;;;;;;;0.40;0.20;;;;;;;;;;10457551;28;20552;-73
2023/12/25 17:52:40;;;;;;;0.43;0.30;;;;;;;;;;10466383;28;20621;-73
2023/12/25 17:57:44;;;;;;;0.75;0.40;;;;;;;;;;10461081;28;20048;-73
2023/12/25 18:02:48;;;;;;;0.88;0.20;;;;;;;;;;10468255;28;20048;-73
2023/12/25 18:07:51;;;;;;;0.20;0.20;;;;;;;;;;10466193;28;20131;-73
2023/12/25 18:12:56;;;;;;;1.55;0.38;;;;;;;;;;10467961;28;20051;-75
2023/12/25 18:17:59;;;;;;;0.20;0.20;;;;;;;;;;10471537;28;20040;-73
2023/12/25 18:23:03;;;;;;;0.43;0.25;;;;;;;;;;10472744;28;20064;-73
2023/12/25 18:28:08;;;;;;;0.20;0.20;;;;;;;;;;10473748;28;20052;-73
2023/12/25 18:33:11;;;;;;;0.40;0.40;;;;;;;;;;10473925;28;20044;-73
2023/12/25 18:38:14;;;;;;;0.30;0.30;;;;;;;;;;10467965;28;20417;-73
2023/12/25 18:43:19;;;;;;;0.60;0.43;;;;;;;;;;10467816;28;20052;-73
2023/12/25 18:48:23;;;;;;;0.28;0.28;;;;;;;;;;10457953;28;20109;-73
2023/12/25 18:53:29;;;;;;;0.20;0.20;;;;;;;;;;10467402;28;20052;-73
2023/12/25 18:58:33;;;;;;;0.40;0.35;;;;;;;;;;10468161;28;20045;-73
2023/12/25 19:03:38;;;;;;;0.20;0.20;;;;;;;;;;10447953;23;20430;-74
2023/12/25 19:08:41;;;;;;;0.20;0.20;;;;;;;;;;10410034;28;20545;-74
2023/12/25 19:13:46;;;;;;;0.22;0.22;;;;;;;;;;10410616;28;20064;-74
2023/12/25 19:18:49;;;;;;;0.30;0.20;;;;;;;;;;10398100;28;20057;-74
2023/12/25 19:23:54;;;;;;;1.05;0.63;;;;;;;;;;10412296;28;20049;-74
2023/12/25 19:28:59;;;;;;;1.52;0.60;;;;;;;;;;10404432;28;20132;-74
2023/12/25 19:34:02;;;;;;;0.50;0.50;;;;;;;;;;10405486;28;20566;-74
2023/12/25 19:39:05;;;;;;;0.70;0.52;;;;;;;;;;10402609;28;20068;-74
2023/12/25 19:44:10;;;;;;;1.15;0.70;;;;;;;;;;10407375;28;20502;-74
2023/12/25 19:49:14;;;;;;;1.15;0.73;;;;;;;;;;10405129;28;20041;-74
2023/12/25 19:54:18;;;;;;;1.38;1.13;;;;;;;;;;10399700;28;20045;-74
2023/12/25 19:59:24;;;;;;;0.70;0.60;;;;;;;;;;10402544;28;20550;-74
2023/12/25 20:04:29;;;;;;;0.65;0.57;;;;;;;;;;10400289;28;20045;-74
2023/12/25 20:09:32;;;;;;;0.57;0.57;;;;;;;;;;10397848;28;20042;-74
2023/12/25 20:14:37;;;;;;;0.47;0.40;;;;;;;;;;10401431;28;20038;-74
2023/12/25 20:19:40;;;;;;;0.65;0.40;;;;;;;;;;10404628;28;20045;-74
2023/12/25 20:24:44;;;;;;;0.93;0.30;;;;;;;;;;10401412;28;20050;-74
2023/12/25 20:29:51;;;;;;;0.43;0.43;;;;;;;;;;10417736;28;20496;-74
2023/12/25 20:34:54;;;;;;;0.40;0.40;;;;;;;;;;10412477;28;20162;-74
2023/12/25 20:39:57;;;;;;;0.57;0.57;;;;;;;;;;10404189;28;20041;-74
2023/12/25 20:45:02;;;;;;;0.40;0.35;;;;;;;;;;10402319;28;20072;-74
2023/12/25 20:50:07;;;;;;;0.32;0.32;;;;;;;;;;10395670;28;20149;-74
2023/12/25 20:55:10;;;;;;;0.60;0.55;;;;;;;;;;10398204;28;20045;-74
2023/12/25 21:00:16;;;;;;;0.90;0.40;;;;;;;;;;10388765;28;20435;-74
2023/12/25 21:05:23;;;;;;;0.25;0.25;;;;;;;;;;10383417;28;20042;-74
2023/12/25 21:10:27;;;;;;;0.45;0.40;;;;;;;;;;10397335;28;20045;-74
2023/12/25 21:15:31;;;;;;;0.35;0.28;;;;;;;;;;10395480;28;20743;-74
2023/12/25 21:20:35;;;;;;;0.30;0.30;;;;;;;;;;10393622;28;20406;-74
2023/12/25 21:25:38;;;;;;;0.85;0.40;;;;;;;;;;10396598;28;20045;-74
2023/12/25 21:30:42;;;;;;;0.40;0.40;;;;;;;;;;10401463;28;20152;-74
2023/12/25 21:35:48;;;;;;;0.45;0.40;;;;;;;;;;10395966;28;20047;-74
2023/12/25 21:40:52;;;;;;;0.43;0.33;;;;;;;;;;10397742;28;20049;-74
2023/12/25 21:45:57;;;;;;;0.43;0.22;;;;;;;;;;10400639;28;21071;-73
2023/12/25 21:51:00;;;;;;;0.60;0.38;;;;;;;;;;10394804;28;20236;-73
2023/12/25 21:56:04;;;;;;;0.50;0.47;;;;;;;;;;10399751;28;20049;-74
2023/12/25 22:01:08;;;;;;;0.95;0.10;;;;;;;;;;10403012;28;20073;-74
2023/12/25 22:06:12;;;;;;;0.30;0.30;;;;;;;;;;10397687;28;20405;-74
2023/12/25 22:11:15;;;;;;;0.22;0.22;;;;;;;;;;10406478;28;20124;-74
2023/12/25 22:16:20;;;;;;;0.30;0.30;;;;;;;;;;10387674;28;20045;-74
2023/12/25 22:21:27;;;;;;;0.20;0.20;;;;;;;;;;10401360;28;20799;-74
2023/12/25 22:26:33;;;;;;;0.40;0.30;;;;;;;;;;10399924;28;20051;-74
2023/12/25 22:31:38;;;;;;;1.80;0.90;;;;;;;;;;10388579;28;20107;-75
2023/12/25 22:36:41;;;;;;;2.72;1.65;;;;;;;;;;10393093;28;20042;-74
2023/12/25 22:41:44;;;;;;;5.35;3.22;;;;;;;;;;10398081;28;20048;-74
2023/12/25 22:46:49;;;;;;;1.77;0.70;;;;;;;;;;10407929;28;20045;-74
2023/12/25 22:51:52;;;;;;;0.68;0.52;;;;;;;;;;10403622;28;20053;-74
2023/12/25 22:56:55;;;;;;;0.70;0.57;;;;;;;;;;10393230;28;20042;-75
2023/12/25 23:02:01;;;;;;;0.30;0.30;;;;;;;;;;10386527;28;20069;-74
2023/12/25 23:07:05;;;;;;;0.37;0.30;;;;;;;;;;10388127;28;20045;-74
2023/12/25 23:12:08;;;;;;;6.63;3.00;;;;;;;;;;10392737;28;20108;-74
2023/12/25 23:17:13;;;;;;;5.80;2.92;;;;;;;;;;10390738;28;20080;-74
2023/12/25 23:22:16;;;;;;;3.75;1.95;;;;;;;;;;10394488;28;20065;-75
2023/12/25 23:27:20;;;;;;;0.52;0.50;;;;;;;;;;10381310;28;20134;-74
2023/12/25 23:32:24;;;;;;;2.05;1.30;;;;;;;;;;10388113;28;20074;-75
2023/12/25 23:37:27;;;;;;;1.90;0.50;;;;;;;;;;10386112;28;20042;-74
2023/12/25 23:42:31;;;;;;;1.35;0.40;;;;;;;;;;10375584;28;20044;-74
2023/12/25 23:47:35;;;;;;;0.20;0.20;;;;;;;;;;10385070;28;20564;-74
2023/12/25 23:52:39;;;;;;;0.28;0.28;;;;;;;;;;10396919;28;20423;-74
2023/12/25 23:57:42;;;;;;;0.60;0.50;;;;;;;;;;10390410;28;20691;-74
